« GIFU AIR FESTIVAL 2014 【飛行編1】 岐阜飛行場 2014/11/23 sun | トップページ | あ、スコット 百里飛行場 2014/11/28 fri »

2014/11/28

GIFU AIR FESTIVAL 2014 【飛行編2】 岐阜飛行場 2014/11/23 sun

その1からつづき

20141123_rjng_200c751077

飛実団のフライトが降りると、すかさず小牧の展示開始。ローテイクオフからハイレイトする駱駝君

20141123_rjng_201c751077

77-1077 C-130H 401SQ C77

お腹にある赤い絆創膏は何?

20141123_rjng_202c073604

07-3604 KC-767J 404SQ C04

KCが小生の前にトーイングされてきます。

20141123_rjng_203x181202

ふと横に目を移すとXCがプリフライトチェック中・・・ 飛ぶのか? 

20141123_rjng_204x181202

18-1202 XC-2 ADTW M-L01

20141123_rjng_205x181202

プッシュバックされていきます。

20141123_rjng_206x181202

急いでエプロンから滑走路脇に転進

METAR RJNG 230200Z VRB01KT 9999 FEW025 16/07 Q1021 RMK 1CU025 A3017

20141123_rjng_207ax181202

キャー

20141123_rjng_207x181202

20141123_rjng_208t865605

チェイスのT-4が先に上がります

86-5605 T-4 ADTW M-L02

20141123_rjng_209x181202

パット見はミニC-17

20141123_rjng_210x181202

ワクワク・ワクワク

20141123_rjng_211x181202

LINE UP でも・・・ なかなか動きません

20141123_rjng_212t865605

チェイスが直上でホールドしてます

20141123_rjng_213x181202

結局タクシーテストのみの模様、残念

20141123_rjng_214t865605

今度はダーティで通過

20141123_rjng_215t865605

この日唯一のRW10ランディング

20141123_rjng_216x181202

エプロンに戻ってきて、おしまい

20141123_rjng_217u523001

52-3001 U-125A TRINING-SQ A01

救難教育隊の展示開始 物資投下から

20141123_rjng_218h664564

UHはコンバットレスキュー

20141123_rjng_219h664564

20141123_rjng_220h664564

66-4564 UH-60J TRINING-SQ H64

20141123_rjng_221c281001

いよいよ銀色の憎いヤツが登場

20141123_rjng_222c281001

子分を従えて、機種毎に連続離陸です。

METAR RJNG 230500Z 03006KT 9999 FEW030 19/07 Q1020 RMK 1CU030 A3012

20141123_rjng_223t165793

#793/#751

20141123_rjng_224f878409

#409/#431

20141123_rjng_225f638101

#101/#502

20141123_rjng_226f028914

#841/#942

20141123_rjng_227f028914

#914

20141123_rjng_228f378318

20141123_rjng_229f378318

#318

20141123_rjng_230fmas

岐阜の大三角

20141123_rjng_231f028914

#914 T/G

20141123_rjng_232t4

#604

20141123_rjng_233fmas

大雁行

20141123_rjng_234f638502

#502 AGG

20141123_rjng_235f60

20141123_rjng_236f60

60フライト

20141123_rjng_237f60

ボクサーブレイク

20141123_rjng_238c281001

#001 お手振り

20141123_rjng_239c281001

ここから順次着陸です。

20141123_rjng_240t165793

16-5793 T-4 ADTW

20141123_rjng_241t665751

66-5751 T-4 ADTW

20141123_rjng_242t665604

66-5604 T-4 ADTW

20141123_rjng_243f328942

20141123_rjng_244f328942

32-8942 F-15J ADTW

20141123_rjng_245f028801

02-8801 F-15J ADTW

20141123_rjng_246f028914

02-8914 F-15J ADTW

20141123_rjng_247f638101

20141123_rjng_248f638101

62-8101 F-2B ADTW

20141123_rjng_249f638502

63-8502 F-2A ADTW

20141123_rjng_250f078431

20141123_rjng_251f078431

20141123_rjng_252f078431

20141123_rjng_253f078431

07-8431 F-4EJk ADTW

20141123_rjng_254f878409

87-8409 F-4EJk ADTW

20141123_rjng_255f378318

20141123_rjng_256f378318

37-8318 F-4EJ ADTW

20141123_rjng_257c281001

28-1001 C-1FTB ADTW

20141123_rjng_258fmass

トリは、シュート回収車

METAR RJNG 230600Z VRB02KT 9999 FEW030 19/06 Q1019 RMK 2CU030 A3012

飛行編おわり

|

« GIFU AIR FESTIVAL 2014 【飛行編1】 岐阜飛行場 2014/11/23 sun | トップページ | あ、スコット 百里飛行場 2014/11/28 fri »

岐阜飛行場」カテゴリの記事

コメント

コメントを書く



(ウェブ上には掲載しません)


コメントは記事投稿者が公開するまで表示されません。



トラックバック


この記事へのトラックバック一覧です: GIFU AIR FESTIVAL 2014 【飛行編2】 岐阜飛行場 2014/11/23 sun:

« GIFU AIR FESTIVAL 2014 【飛行編1】 岐阜飛行場 2014/11/23 sun | トップページ | あ、スコット 百里飛行場 2014/11/28 fri »